sensor_id;sensor_type;location;lat;lon;timestamp;pressure;altitude;pressure_sealevel;temperature;humidity
4705;BME280;2366;51.332;6.610;2023-04-09T00:01:07;102424.88;;;11.45;69.23
4705;BME280;2366;51.332;6.610;2023-04-09T00:03:33;102420.56;;;11.42;69.05
4705;BME280;2366;51.332;6.610;2023-04-09T00:05:58;102421.53;;;11.40;68.69
4705;BME280;2366;51.332;6.610;2023-04-09T00:08:24;102421.66;;;11.37;68.95
4705;BME280;2366;51.332;6.610;2023-04-09T00:10:54;102419.06;;;11.35;69.43
4705;BME280;2366;51.332;6.610;2023-04-09T00:13:19;102420.97;;;11.31;69.10
4705;BME280;2366;51.332;6.610;2023-04-09T00:15:46;102417.56;;;11.28;69.20
4705;BME280;2366;51.332;6.610;2023-04-09T00:18:12;102415.09;;;11.23;69.26
4705;BME280;2366;51.332;6.610;2023-04-09T00:20:38;102427.59;;;11.20;69.53
4705;BME280;2366;51.332;6.610;2023-04-09T00:23:03;102428.50;;;11.19;69.59
4705;BME280;2366;51.332;6.610;2023-04-09T00:25:28;102422.50;;;11.14;69.92
4705;BME280;2366;51.332;6.610;2023-04-09T00:27:54;102414.56;;;11.14;69.83
4705;BME280;2366;51.332;6.610;2023-04-09T00:30:20;102420.00;;;11.10;70.04
4705;BME280;2366;51.332;6.610;2023-04-09T00:32:46;102421.03;;;11.06;70.04
4705;BME280;2366;51.332;6.610;2023-04-09T00:35:12;102415.13;;;10.98;69.95
4705;BME280;2366;51.332;6.610;2023-04-09T00:37:37;102415.25;;;10.95;70.17
4705;BME280;2366;51.332;6.610;2023-04-09T00:40:03;102417.97;;;10.92;70.23
4705;BME280;2366;51.332;6.610;2023-04-09T00:42:36;102424.28;;;10.89;70.26
4705;BME280;2366;51.332;6.610;2023-04-09T00:45:05;102420.00;;;10.85;70.39
4705;BME280;2366;51.332;6.610;2023-04-09T00:47:30;102421.97;;;10.80;70.34
4705;BME280;2366;51.332;6.610;2023-04-09T00:49:56;102410.56;;;10.77;70.64
4705;BME280;2366;51.332;6.610;2023-04-09T00:52:22;102420.31;;;10.76;70.71
4705;BME280;2366;51.332;6.610;2023-04-09T00:54:49;102414.00;;;10.80;71.24
4705;BME280;2366;51.332;6.610;2023-04-09T00:57:15;102421.06;;;10.80;71.33
4705;BME280;2366;51.332;6.610;2023-04-09T00:59:42;102416.56;;;10.82;71.20
4705;BME280;2366;51.332;6.610;2023-04-09T01:02:08;102411.38;;;10.79;71.03
4705;BME280;2366;51.332;6.610;2023-04-09T01:04:33;102409.63;;;10.78;71.07
4705;BME280;2366;51.332;6.610;2023-04-09T01:15:35;102398.75;;;10.60;71.16
4705;BME280;2366;51.332;6.610;2023-04-09T01:18:10;102407.91;;;10.52;71.03
4705;BME280;2366;51.332;6.610;2023-04-09T01:20:41;102409.00;;;10.46;71.16
4705;BME280;2366;51.332;6.610;2023-04-09T01:26:17;102404.91;;;10.36;71.79
4705;BME280;2366;51.332;6.610;2023-04-09T01:28:48;102409.44;;;10.32;71.81
4705;BME280;2366;51.332;6.610;2023-04-09T01:31:17;102407.81;;;10.28;71.89
4705;BME280;2366;51.332;6.610;2023-04-09T01:33:44;102403.41;;;10.27;72.13
4705;BME280;2366;51.332;6.610;2023-04-09T01:36:10;102397.28;;;10.25;72.33
4705;BME280;2366;51.332;6.610;2023-04-09T01:38:37;102396.47;;;10.23;72.49
4705;BME280;2366;51.332;6.610;2023-04-09T01:41:04;102398.38;;;10.19;72.35
4705;BME280;2366;51.332;6.610;2023-04-09T01:43:31;102400.41;;;10.11;72.21
4705;BME280;2366;51.332;6.610;2023-04-09T01:45:59;102397.00;;;10.06;72.30
4705;BME280;2366;51.332;6.610;2023-04-09T01:48:26;102405.06;;;10.03;72.41
4705;BME280;2366;51.332;6.610;2023-04-09T01:50:53;102398.25;;;9.96;72.57
4705;BME280;2366;51.332;6.610;2023-04-09T01:53:18;102390.50;;;9.90;72.38
4705;BME280;2366;51.332;6.610;2023-04-09T01:55:44;102391.63;;;9.82;72.33
4705;BME280;2366;51.332;6.610;2023-04-09T01:58:10;102393.66;;;9.73;72.14
4705;BME280;2366;51.332;6.610;2023-04-09T02:00:38;102392.00;;;9.70;72.49
4705;BME280;2366;51.332;6.610;2023-04-09T02:03:21;102391.16;;;9.68;72.59
4705;BME280;2366;51.332;6.610;2023-04-09T02:05:59;102387.41;;;9.75;73.04
4705;BME280;2366;51.332;6.610;2023-04-09T02:08:29;102389.47;;;9.94;73.73
4705;BME280;2366;51.332;6.610;2023-04-09T02:10:57;102389.13;;;10.04;73.54
4705;BME280;2366;51.332;6.610;2023-04-09T02:13:24;102387.97;;;10.13;73.77
4705;BME280;2366;51.332;6.610;2023-04-09T02:15:51;102385.97;;;10.20;73.65
4705;BME280;2366;51.332;6.610;2023-04-09T02:18:27;102380.47;;;10.26;73.58
4705;BME280;2366;51.332;6.610;2023-04-09T02:20:54;102381.34;;;10.26;73.46
4705;BME280;2366;51.332;6.610;2023-04-09T02:23:20;102372.59;;;10.23;73.39
4705;BME280;2366;51.332;6.610;2023-04-09T02:25:46;102371.94;;;10.16;73.19
4705;BME280;2366;51.332;6.610;2023-04-09T02:28:11;102377.44;;;10.10;73.12
4705;BME280;2366;51.332;6.610;2023-04-09T02:30:36;102373.31;;;10.01;72.91
4705;BME280;2366;51.332;6.610;2023-04-09T02:33:02;102376.13;;;9.97;73.33
4705;BME280;2366;51.332;6.610;2023-04-09T02:35:27;102370.06;;;9.93;73.28
4705;BME280;2366;51.332;6.610;2023-04-09T02:37:53;102369.38;;;9.86;72.91
4705;BME280;2366;51.332;6.610;2023-04-09T02:40:18;102364.31;;;9.80;73.10
4705;BME280;2366;51.332;6.610;2023-04-09T02:42:44;102365.41;;;9.73;73.06
4705;BME280;2366;51.332;6.610;2023-04-09T02:45:09;102368.22;;;9.67;73.18
4705;BME280;2366;51.332;6.610;2023-04-09T02:47:34;102362.34;;;9.59;72.91
4705;BME280;2366;51.332;6.610;2023-04-09T02:50:00;102358.13;;;9.52;73.04
4705;BME280;2366;51.332;6.610;2023-04-09T02:52:25;102351.97;;;9.51;73.50
4705;BME280;2366;51.332;6.610;2023-04-09T02:54:51;102349.47;;;9.46;73.30
4705;BME280;2366;51.332;6.610;2023-04-09T02:57:16;102347.81;;;9.42;73.44
4705;BME280;2366;51.332;6.610;2023-04-09T02:59:42;102348.75;;;9.41;73.78
4705;BME280;2366;51.332;6.610;2023-04-09T03:02:07;102349.66;;;9.40;73.83
4705;BME280;2366;51.332;6.610;2023-04-09T03:04:33;102349.75;;;9.37;73.80
4705;BME280;2366;51.332;6.610;2023-04-09T03:06:58;102350.91;;;9.29;73.54
4705;BME280;2366;51.332;6.610;2023-04-09T03:09:23;102354.50;;;9.26;73.79
4705;BME280;2366;51.332;6.610;2023-04-09T03:11:49;102343.09;;;9.24;73.86
4705;BME280;2366;51.332;6.610;2023-04-09T03:14:14;102353.78;;;9.19;73.78
4705;BME280;2366;51.332;6.610;2023-04-09T03:16:40;102344.25;;;9.15;74.08
4705;BME280;2366;51.332;6.610;2023-04-09T03:19:05;102344.31;;;9.12;74.22
4705;BME280;2366;51.332;6.610;2023-04-09T03:21:30;102336.47;;;9.09;74.18
4705;BME280;2366;51.332;6.610;2023-04-09T03:23:56;102329.50;;;9.07;74.39
4705;BME280;2366;51.332;6.610;2023-04-09T03:26:21;102336.56;;;9.06;74.45
4705;BME280;2366;51.332;6.610;2023-04-09T03:28:47;102335.78;;;9.02;74.33
4705;BME280;2366;51.332;6.610;2023-04-09T03:31:12;102339.44;;;8.98;74.30
4705;BME280;2366;51.332;6.610;2023-04-09T03:33:38;102346.53;;;8.96;74.16
4705;BME280;2366;51.332;6.610;2023-04-09T03:36:03;102334.31;;;8.92;74.67
4705;BME280;2366;51.332;6.610;2023-04-09T03:38:29;102345.84;;;8.90;74.44
4705;BME280;2366;51.332;6.610;2023-04-09T03:40:55;102347.72;;;8.86;74.78
4705;BME280;2366;51.332;6.610;2023-04-09T03:43:20;102338.94;;;8.84;74.84
4705;BME280;2366;51.332;6.610;2023-04-09T03:45:46;102339.81;;;8.84;75.15
4705;BME280;2366;51.332;6.610;2023-04-09T03:48:11;102338.94;;;8.84;74.94
4705;BME280;2366;51.332;6.610;2023-04-09T03:50:38;102339.06;;;8.81;74.89
4705;BME280;2366;51.332;6.610;2023-04-09T03:53:04;102339.06;;;8.81;75.13
4705;BME280;2366;51.332;6.610;2023-04-09T03:55:29;102345.25;;;8.80;74.92
4705;BME280;2366;51.332;6.610;2023-04-09T03:57:54;102342.75;;;8.74;74.95
4705;BME280;2366;51.332;6.610;2023-04-09T04:00:20;102348.03;;;8.74;75.20
4705;BME280;2366;51.332;6.610;2023-04-09T04:02:46;102337.56;;;8.71;74.99
4705;BME280;2366;51.332;6.610;2023-04-09T04:05:12;102348.16;;;8.71;74.97
4705;BME280;2366;51.332;6.610;2023-04-09T04:07:37;102349.97;;;8.69;75.11
4705;BME280;2366;51.332;6.610;2023-04-09T04:10:06;102348.28;;;8.66;75.00
4705;BME280;2366;51.332;6.610;2023-04-09T04:12:32;102344.81;;;8.64;74.91
4705;BME280;2366;51.332;6.610;2023-04-09T04:14:57;102348.44;;;8.60;74.92
4705;BME280;2366;51.332;6.610;2023-04-09T04:17:22;102347.66;;;8.56;75.09
4705;BME280;2366;51.332;6.610;2023-04-09T04:19:48;102343.28;;;8.55;75.47
4705;BME280;2366;51.332;6.610;2023-04-09T04:22:13;102340.72;;;8.52;74.82
4705;BME280;2366;51.332;6.610;2023-04-09T04:24:38;102344.28;;;8.50;75.34
4705;BME280;2366;51.332;6.610;2023-04-09T04:27:04;102351.41;;;8.48;75.31
4705;BME280;2366;51.332;6.610;2023-04-09T04:29:30;102342.72;;;8.44;75.67
4705;BME280;2366;51.332;6.610;2023-04-09T04:31:56;102348.03;;;8.42;75.58
4705;BME280;2366;51.332;6.610;2023-04-09T04:34:22;102346.34;;;8.38;75.25
4705;BME280;2366;51.332;6.610;2023-04-09T04:36:47;102351.72;;;8.35;75.58
4705;BME280;2366;51.332;6.610;2023-04-09T04:39:12;102352.72;;;8.30;75.30
4705;BME280;2366;51.332;6.610;2023-04-09T04:41:38;102345.78;;;8.26;74.71
4705;BME280;2366;51.332;6.610;2023-04-09T04:44:03;102345.94;;;8.19;74.71
4705;BME280;2366;51.332;6.610;2023-04-09T04:46:28;102352.25;;;8.14;74.91
4705;BME280;2366;51.332;6.610;2023-04-09T04:48:54;102349.06;;;8.01;74.50
4705;BME280;2366;51.332;6.610;2023-04-09T04:51:19;102350.97;;;7.94;74.25
4705;BME280;2366;51.332;6.610;2023-04-09T04:53:45;102344.06;;;7.89;74.32
4705;BME280;2366;51.332;6.610;2023-04-09T04:56:14;102356.53;;;7.84;74.44
4705;BME280;2366;51.332;6.610;2023-04-09T04:58:40;102353.03;;;7.83;74.68
4705;BME280;2366;51.332;6.610;2023-04-09T05:01:06;102354.72;;;7.86;74.42
4705;BME280;2366;51.332;6.610;2023-04-09T05:03:32;102349.44;;;7.86;74.23
4705;BME280;2366;51.332;6.610;2023-04-09T05:05:57;102353.78;;;7.88;74.66
4705;BME280;2366;51.332;6.610;2023-04-09T05:08:22;102351.09;;;7.90;74.26
4705;BME280;2366;51.332;6.610;2023-04-09T05:10:48;102356.31;;;7.91;74.12
4705;BME280;2366;51.332;6.610;2023-04-09T05:13:13;102355.44;;;7.92;73.92
4705;BME280;2366;51.332;6.610;2023-04-09T05:15:39;102360.69;;;7.94;74.05
4705;BME280;2366;51.332;6.610;2023-04-09T05:18:06;102358.78;;;7.99;74.60
4705;BME280;2366;51.332;6.610;2023-04-09T05:20:32;102353.38;;;8.05;74.62
4705;BME280;2366;51.332;6.610;2023-04-09T05:22:58;102362.00;;;8.12;73.85
4705;BME280;2366;51.332;6.610;2023-04-09T05:25:23;102358.28;;;8.19;74.07
4705;BME280;2366;51.332;6.610;2023-04-09T05:27:48;102356.28;;;8.29;74.49
4705;BME280;2366;51.332;6.610;2023-04-09T05:30:14;102359.06;;;8.58;74.05
4705;BME280;2366;51.332;6.610;2023-04-09T05:32:39;102358.81;;;8.99;73.98
4705;BME280;2366;51.332;6.610;2023-04-09T05:35:05;102358.44;;;9.97;73.47
4705;BME280;2366;51.332;6.610;2023-04-09T05:37:31;102357.94;;;11.13;70.49
4705;BME280;2366;51.332;6.610;2023-04-09T05:39:56;102362.16;;;12.08;66.88
4705;BME280;2366;51.332;6.610;2023-04-09T05:42:21;102353.59;;;12.84;63.61
4705;BME280;2366;51.332;6.610;2023-04-09T05:44:47;102356.63;;;13.53;62.43
4705;BME280;2366;51.332;6.610;2023-04-09T05:47:12;102360.06;;;14.09;58.96
4705;BME280;2366;51.332;6.610;2023-04-09T05:49:37;102357.53;;;14.60;57.27
4705;BME280;2366;51.332;6.610;2023-04-09T05:52:03;102363.00;;;15.24;55.79
4705;BME280;2366;51.332;6.610;2023-04-09T05:54:30;102358.81;;;15.83;53.85
4705;BME280;2366;51.332;6.610;2023-04-09T05:56:55;102356.25;;;16.56;53.56
4705;BME280;2366;51.332;6.610;2023-04-09T05:59:21;102360.78;;;16.84;51.56
4705;BME280;2366;51.332;6.610;2023-04-09T06:01:46;102357.94;;;16.88;50.34
4705;BME280;2366;51.332;6.610;2023-04-09T06:04:12;102356.31;;;17.14;49.82
4705;BME280;2366;51.332;6.610;2023-04-09T06:06:37;102363.81;;;17.77;47.51
4705;BME280;2366;51.332;6.610;2023-04-09T06:09:03;102359.19;;;18.34;46.16
4705;BME280;2366;51.332;6.610;2023-04-09T06:11:29;102356.00;;;18.54;44.19
4705;BME280;2366;51.332;6.610;2023-04-09T06:13:54;102359.53;;;19.06;44.12
4705;BME280;2366;51.332;6.610;2023-04-09T06:16:20;102367.16;;;19.49;42.86
4705;BME280;2366;51.332;6.610;2023-04-09T06:18:45;102358.22;;;20.09;41.23
4705;BME280;2366;51.332;6.610;2023-04-09T06:21:12;102362.19;;;20.28;40.61
4705;BME280;2366;51.332;6.610;2023-04-09T06:23:38;102356.53;;;20.66;39.75
4705;BME280;2366;51.332;6.610;2023-04-09T06:26:04;102363.41;;;21.27;38.91
4705;BME280;2366;51.332;6.610;2023-04-09T06:28:30;102368.56;;;21.85;37.38
4705;BME280;2366;51.332;6.610;2023-04-09T06:30:56;102357.69;;;22.07;36.72
4705;BME280;2366;51.332;6.610;2023-04-09T06:33:21;102359.97;;;22.44;35.44
4705;BME280;2366;51.332;6.610;2023-04-09T06:35:47;102360.56;;;22.48;35.14
4705;BME280;2366;51.332;6.610;2023-04-09T06:38:13;102363.66;;;22.64;34.99
4705;BME280;2366;51.332;6.610;2023-04-09T06:40:39;102365.28;;;22.76;34.46
4705;BME280;2366;51.332;6.610;2023-04-09T06:43:05;102366.00;;;23.09;33.80
4705;BME280;2366;51.332;6.610;2023-04-09T06:45:31;102364.13;;;23.41;32.47
4705;BME280;2366;51.332;6.610;2023-04-09T06:47:58;102362.72;;;23.56;31.88
4705;BME280;2366;51.332;6.610;2023-04-09T06:50:23;102357.75;;;23.51;32.00
4705;BME280;2366;51.332;6.610;2023-04-09T06:52:50;102361.66;;;23.78;31.81
4705;BME280;2366;51.332;6.610;2023-04-09T06:55:15;102370.19;;;24.22;30.55
4705;BME280;2366;51.332;6.610;2023-04-09T06:57:41;102370.00;;;24.63;30.43
4705;BME280;2366;51.332;6.610;2023-04-09T07:00:07;102370.16;;;24.61;29.94
4705;BME280;2366;51.332;6.610;2023-04-09T07:02:32;102363.91;;;24.31;30.90
4705;BME280;2366;51.332;6.610;2023-04-09T07:04:58;102371.25;;;24.78;30.48
4705;BME280;2366;51.332;6.610;2023-04-09T07:07:23;102370.09;;;25.46;29.03
4705;BME280;2366;51.332;6.610;2023-04-09T07:09:49;102363.66;;;25.29;28.30
4705;BME280;2366;51.332;6.610;2023-04-09T07:12:28;102361.13;;;25.08;28.95
4705;BME280;2366;51.332;6.610;2023-04-09T07:15:01;102362.13;;;25.44;28.44
4705;BME280;2366;51.332;6.610;2023-04-09T07:17:28;102360.25;;;25.45;27.39
4705;BME280;2366;51.332;6.610;2023-04-09T07:19:54;102358.94;;;25.85;26.61
4705;BME280;2366;51.332;6.610;2023-04-09T07:22:21;102357.97;;;26.03;26.86
4705;BME280;2366;51.332;6.610;2023-04-09T07:24:47;102359.09;;;26.89;26.58
4705;BME280;2366;51.332;6.610;2023-04-09T07:27:21;102364.00;;;26.33;26.80
4705;BME280;2366;51.332;6.610;2023-04-09T07:29:47;102363.41;;;26.48;26.67
4705;BME280;2366;51.332;6.610;2023-04-09T07:32:12;102362.34;;;26.93;26.27
4705;BME280;2366;51.332;6.610;2023-04-09T07:34:38;102356.16;;;26.82;25.80
4705;BME280;2366;51.332;6.610;2023-04-09T07:37:03;102362.81;;;26.36;26.03
4705;BME280;2366;51.332;6.610;2023-04-09T07:39:30;102358.81;;;26.04;26.69
4705;BME280;2366;51.332;6.610;2023-04-09T07:41:55;102370.13;;;26.17;26.74
4705;BME280;2366;51.332;6.610;2023-04-09T07:44:21;102369.31;;;26.43;26.74
4705;BME280;2366;51.332;6.610;2023-04-09T07:46:47;102364.44;;;26.73;26.64
4705;BME280;2366;51.332;6.610;2023-04-09T07:49:14;102369.06;;;27.15;25.25
4705;BME280;2366;51.332;6.610;2023-04-09T07:51:40;102364.81;;;25.90;25.67
4705;BME280;2366;51.332;6.610;2023-04-09T07:54:06;102358.06;;;25.94;26.98
4705;BME280;2366;51.332;6.610;2023-04-09T07:56:31;102358.72;;;26.32;25.72
4705;BME280;2366;51.332;6.610;2023-04-09T07:58:56;102370.34;;;26.42;26.12
4705;BME280;2366;51.332;6.610;2023-04-09T08:01:22;102368.16;;;26.72;25.84
4705;BME280;2366;51.332;6.610;2023-04-09T08:03:49;102363.97;;;26.77;25.87
4705;BME280;2366;51.332;6.610;2023-04-09T08:06:15;102368.47;;;27.96;25.18
4705;BME280;2366;51.332;6.610;2023-04-09T08:08:41;102370.44;;;29.32;23.64
4705;BME280;2366;51.332;6.610;2023-04-09T08:11:06;102356.28;;;30.06;22.37
4705;BME280;2366;51.332;6.610;2023-04-09T08:13:32;102351.09;;;29.11;22.92
4705;BME280;2366;51.332;6.610;2023-04-09T08:16:00;102353.75;;;29.19;22.17
4705;BME280;2366;51.332;6.610;2023-04-09T08:18:26;102349.16;;;28.72;24.23
4705;BME280;2366;51.332;6.610;2023-04-09T08:20:52;102352.22;;;29.08;22.04
4705;BME280;2366;51.332;6.610;2023-04-09T08:23:17;102354.50;;;28.08;23.26
4705;BME280;2366;51.332;6.610;2023-04-09T08:25:43;102346.63;;;28.45;22.52
4705;BME280;2366;51.332;6.610;2023-04-09T08:28:08;102344.75;;;28.38;22.79
4705;BME280;2366;51.332;6.610;2023-04-09T08:30:33;102345.16;;;28.91;21.96
4705;BME280;2366;51.332;6.610;2023-04-09T08:33:00;102350.31;;;29.25;22.27
4705;BME280;2366;51.332;6.610;2023-04-09T08:35:25;102347.22;;;29.59;22.17
4705;BME280;2366;51.332;6.610;2023-04-09T08:37:54;102347.50;;;29.96;21.03
4705;BME280;2366;51.332;6.610;2023-04-09T08:40:20;102354.88;;;30.48;20.64
4705;BME280;2366;51.332;6.610;2023-04-09T08:42:50;102355.06;;;31.21;20.01
4705;BME280;2366;51.332;6.610;2023-04-09T08:45:17;102353.53;;;31.18;20.14
4705;BME280;2366;51.332;6.610;2023-04-09T08:47:44;102356.53;;;30.87;20.24
4705;BME280;2366;51.332;6.610;2023-04-09T08:50:13;102353.47;;;30.97;20.43
4705;BME280;2366;51.332;6.610;2023-04-09T08:52:42;102349.94;;;30.05;20.94
4705;BME280;2366;51.332;6.610;2023-04-09T08:55:10;102352.69;;;30.05;20.32
4705;BME280;2366;51.332;6.610;2023-04-09T08:57:37;102351.78;;;30.66;20.79
4705;BME280;2366;51.332;6.610;2023-04-09T09:00:03;102350.19;;;30.71;20.53
4705;BME280;2366;51.332;6.610;2023-04-09T09:02:29;102343.72;;;31.24;20.58
4705;BME280;2366;51.332;6.610;2023-04-09T09:04:55;102342.03;;;31.59;20.03
4705;BME280;2366;51.332;6.610;2023-04-09T09:07:26;102339.13;;;31.09;21.23
4705;BME280;2366;51.332;6.610;2023-04-09T09:09:59;102333.94;;;31.15;20.71
4705;BME280;2366;51.332;6.610;2023-04-09T09:14:58;102330.28;;;30.93;20.55
4705;BME280;2366;51.332;6.610;2023-04-09T09:17:24;102321.38;;;29.16;22.53
4705;BME280;2366;51.332;6.610;2023-04-09T09:19:50;102322.97;;;29.33;21.41
4705;BME280;2366;51.332;6.610;2023-04-09T09:22:15;102319.34;;;28.54;23.08
4705;BME280;2366;51.332;6.610;2023-04-09T09:24:51;102323.47;;;28.41;23.68
4705;BME280;2366;51.332;6.610;2023-04-09T09:27:36;102314.72;;;29.41;21.32
4705;BME280;2366;51.332;6.610;2023-04-09T09:30:04;102308.75;;;29.06;22.13
4705;BME280;2366;51.332;6.610;2023-04-09T09:32:31;102316.06;;;29.06;22.28
4705;BME280;2366;51.332;6.610;2023-04-09T09:35:06;102309.63;;;28.99;22.29
4705;BME280;2366;51.332;6.610;2023-04-09T09:37:32;102309.16;;;27.65;23.04
4705;BME280;2366;51.332;6.610;2023-04-09T09:39:58;102310.88;;;27.75;22.81
4705;BME280;2366;51.332;6.610;2023-04-09T09:42:24;102311.06;;;28.06;22.21
4705;BME280;2366;51.332;6.610;2023-04-09T09:44:53;102306.59;;;28.21;22.11
4705;BME280;2366;51.332;6.610;2023-04-09T09:47:20;102298.31;;;25.02;25.21
4705;BME280;2366;51.332;6.610;2023-04-09T09:49:50;102292.22;;;24.06;27.23
4705;BME280;2366;51.332;6.610;2023-04-09T09:52:20;102296.56;;;26.37;24.49
4705;BME280;2366;51.332;6.610;2023-04-09T09:54:51;102296.47;;;25.31;25.46
4705;BME280;2366;51.332;6.610;2023-04-09T09:57:23;102293.75;;;23.31;27.85
4705;BME280;2366;51.332;6.610;2023-04-09T10:00:00;102288.47;;;22.48;29.24
4705;BME280;2366;51.332;6.610;2023-04-09T10:02:30;102287.03;;;22.75;28.50
4705;BME280;2366;51.332;6.610;2023-04-09T10:05:03;102282.16;;;22.38;27.85
4705;BME280;2366;51.332;6.610;2023-04-09T10:07:30;102284.50;;;21.89;28.68
4705;BME280;2366;51.332;6.610;2023-04-09T10:09:56;102279.88;;;23.05;28.55
4705;BME280;2366;51.332;6.610;2023-04-09T10:12:24;102279.84;;;22.95;28.26
4705;BME280;2366;51.332;6.610;2023-04-09T10:14:50;102280.69;;;21.71;29.76
4705;BME280;2366;51.332;6.610;2023-04-09T10:17:18;102280.72;;;20.93;29.48
4705;BME280;2366;51.332;6.610;2023-04-09T10:20:33;102278.47;;;20.31;29.68
4705;BME280;2366;51.332;6.610;2023-04-09T10:22:33;102274.78;;;19.74;30.96
4705;BME280;2366;51.332;6.610;2023-04-09T10:25:02;102276.63;;;20.20;30.47
4705;BME280;2366;51.332;6.610;2023-04-09T10:27:27;102282.56;;;20.01;31.67
4705;BME280;2366;51.332;6.610;2023-04-09T10:29:53;102275.22;;;20.03;31.44
4705;BME280;2366;51.332;6.610;2023-04-09T10:32:19;102283.75;;;19.86;30.72
4705;BME280;2366;51.332;6.610;2023-04-09T10:34:46;102274.81;;;19.61;31.61
4705;BME280;2366;51.332;6.610;2023-04-09T10:37:19;102275.00;;;19.71;32.04
4705;BME280;2366;51.332;6.610;2023-04-09T10:39:47;102274.00;;;20.07;31.20
4705;BME280;2366;51.332;6.610;2023-04-09T10:42:31;102261.44;;;19.73;31.12
4705;BME280;2366;51.332;6.610;2023-04-09T10:45:04;102274.53;;;19.77;29.65
4705;BME280;2366;51.332;6.610;2023-04-09T10:47:32;102271.94;;;19.27;30.50
4705;BME280;2366;51.332;6.610;2023-04-09T10:50:13;102261.75;;;18.96;30.96
4705;BME280;2366;51.332;6.610;2023-04-09T10:52:40;102258.03;;;19.34;31.13
4705;BME280;2366;51.332;6.610;2023-04-09T10:55:09;102255.00;;;19.62;31.95
4705;BME280;2366;51.332;6.610;2023-04-09T10:57:53;102257.16;;;19.70;31.06
4705;BME280;2366;51.332;6.610;2023-04-09T11:00:19;102264.31;;;19.58;31.79
4705;BME280;2366;51.332;6.610;2023-04-09T11:08:12;102256.06;;;19.73;30.84
4705;BME280;2366;51.332;6.610;2023-04-09T11:10:39;102251.31;;;19.76;31.46
4705;BME280;2366;51.332;6.610;2023-04-09T11:13:08;102256.28;;;20.05;32.03
4705;BME280;2366;51.332;6.610;2023-04-09T11:15:35;102245.44;;;20.51;31.80
4705;BME280;2366;51.332;6.610;2023-04-09T11:18:01;102243.72;;;20.39;30.56
4705;BME280;2366;51.332;6.610;2023-04-09T11:20:27;102244.09;;;20.23;30.79
4705;BME280;2366;51.332;6.610;2023-04-09T11:22:55;102229.91;;;19.86;30.46
4705;BME280;2366;51.332;6.610;2023-04-09T11:25:22;102224.81;;;19.59;30.91
4705;BME280;2366;51.332;6.610;2023-04-09T11:27:50;102229.53;;;19.55;31.68
4705;BME280;2366;51.332;6.610;2023-04-09T11:30:15;102232.69;;;19.49;30.71
4705;BME280;2366;51.332;6.610;2023-04-09T11:32:41;102218.47;;;19.36;30.55
4705;BME280;2366;51.332;6.610;2023-04-09T11:35:17;102234.69;;;19.10;31.90
4705;BME280;2366;51.332;6.610;2023-04-09T11:37:43;102226.19;;;19.40;30.89
4705;BME280;2366;51.332;6.610;2023-04-09T11:40:19;102206.81;;;19.59;30.44
4705;BME280;2366;51.332;6.610;2023-04-09T11:42:47;102222.88;;;19.37;31.63
4705;BME280;2366;51.332;6.610;2023-04-09T11:45:13;102215.69;;;19.73;32.12
4705;BME280;2366;51.332;6.610;2023-04-09T11:47:40;102215.22;;;19.79;30.97
4705;BME280;2366;51.332;6.610;2023-04-09T11:50:07;102211.69;;;19.78;30.35
4705;BME280;2366;51.332;6.610;2023-04-09T11:52:33;102211.03;;;20.21;30.57
4705;BME280;2366;51.332;6.610;2023-04-09T11:55:04;102212.13;;;20.19;30.03
4705;BME280;2366;51.332;6.610;2023-04-09T11:57:45;102213.47;;;20.24;30.08
4705;BME280;2366;51.332;6.610;2023-04-09T12:00:15;102205.03;;;20.40;30.29
4705;BME280;2366;51.332;6.610;2023-04-09T12:02:44;102205.28;;;20.48;30.37
4705;BME280;2366;51.332;6.610;2023-04-09T12:05:24;102205.41;;;20.36;29.07
4705;BME280;2366;51.332;6.610;2023-04-09T12:07:51;102206.22;;;20.02;29.11
4705;BME280;2366;51.332;6.610;2023-04-09T12:10:16;102211.69;;;19.78;29.95
4705;BME280;2366;51.332;6.610;2023-04-09T12:12:43;102201.06;;;19.88;30.76
4705;BME280;2366;51.332;6.610;2023-04-09T12:15:25;102206.34;;;19.89;30.66
4705;BME280;2366;51.332;6.610;2023-04-09T12:17:54;102210.66;;;20.15;30.35
4705;BME280;2366;51.332;6.610;2023-04-09T12:20:37;102193.88;;;20.11;29.27
4705;BME280;2366;51.332;6.610;2023-04-09T12:23:07;102197.84;;;19.72;30.57
4705;BME280;2366;51.332;6.610;2023-04-09T12:25:39;102195.81;;;19.62;30.77
4705;BME280;2366;51.332;6.610;2023-04-09T12:28:06;102196.53;;;19.53;30.71
4705;BME280;2366;51.332;6.610;2023-04-09T12:30:32;102201.69;;;19.56;30.90
4705;BME280;2366;51.332;6.610;2023-04-09T12:32:58;102196.81;;;19.61;31.09
4705;BME280;2366;51.332;6.610;2023-04-09T12:35:24;102197.38;;;19.54;31.15
4705;BME280;2366;51.332;6.610;2023-04-09T12:37:50;102200.72;;;19.68;30.73
4705;BME280;2366;51.332;6.610;2023-04-09T12:40:16;102203.44;;;20.04;30.68
4705;BME280;2366;51.332;6.610;2023-04-09T12:42:42;102203.53;;;20.02;30.32
4705;BME280;2366;51.332;6.610;2023-04-09T12:45:10;102204.50;;;20.01;31.85
4705;BME280;2366;51.332;6.610;2023-04-09T12:47:36;102203.34;;;20.62;29.97
4705;BME280;2366;51.332;6.610;2023-04-09T12:50:06;102201.13;;;20.78;29.83
4705;BME280;2366;51.332;6.610;2023-04-09T12:52:32;102201.09;;;20.89;29.87
4705;BME280;2366;51.332;6.610;2023-04-09T12:54:58;102195.78;;;21.10;29.89
4705;BME280;2366;51.332;6.610;2023-04-09T12:57:24;102190.72;;;21.17;28.81
4705;BME280;2366;51.332;6.610;2023-04-09T12:59:50;102197.41;;;21.02;29.71
4705;BME280;2366;51.332;6.610;2023-04-09T13:02:15;102184.44;;;20.96;28.91
4705;BME280;2366;51.332;6.610;2023-04-09T13:04:40;102191.03;;;20.91;29.08
4705;BME280;2366;51.332;6.610;2023-04-09T13:07:07;102189.59;;;20.87;29.91
4705;BME280;2366;51.332;6.610;2023-04-09T13:09:33;102197.94;;;21.28;29.93
4705;BME280;2366;51.332;6.610;2023-04-09T13:11:59;102192.00;;;21.66;29.33
4705;BME280;2366;51.332;6.610;2023-04-09T13:14:25;102186.88;;;21.63;29.69
4705;BME280;2366;51.332;6.610;2023-04-09T13:16:50;102188.41;;;21.56;29.89
4705;BME280;2366;51.332;6.610;2023-04-09T13:19:16;102184.47;;;21.49;29.84
4705;BME280;2366;51.332;6.610;2023-04-09T13:21:43;102183.78;;;21.68;28.25
4705;BME280;2366;51.332;6.610;2023-04-09T13:24:08;102166.28;;;21.62;28.92
4705;BME280;2366;51.332;6.610;2023-04-09T13:26:33;102171.72;;;21.93;29.32
4705;BME280;2366;51.332;6.610;2023-04-09T13:28:59;102169.81;;;21.84;28.56
4705;BME280;2366;51.332;6.610;2023-04-09T13:31:25;102161.63;;;21.64;28.81
4705;BME280;2366;51.332;6.610;2023-04-09T13:33:51;102165.56;;;21.28;29.88